sensor_id;sensor_type;location;lat;lon;timestamp;temperature;humidity
19680;DHT22;9989;48.962;9.182;2022-11-14T00:02:23;5.70;99.90
19680;DHT22;9989;48.962;9.182;2022-11-14T00:04:48;5.60;99.90
19680;DHT22;9989;48.962;9.182;2022-11-14T00:07:14;5.60;99.90
19680;DHT22;9989;48.962;9.182;2022-11-14T00:09:40;5.50;99.90
19680;DHT22;9989;48.962;9.182;2022-11-14T00:12:11;5.50;99.90
19680;DHT22;9989;48.962;9.182;2022-11-14T00:14:36;5.50;99.90
19680;DHT22;9989;48.962;9.182;2022-11-14T00:17:03;5.50;99.90
19680;DHT22;9989;48.962;9.182;2022-11-14T00:19:29;5.50;99.90
19680;DHT22;9989;48.962;9.182;2022-11-14T00:21:54;5.50;99.90
19680;DHT22;9989;48.962;9.182;2022-11-14T00:24:20;5.50;99.90
19680;DHT22;9989;48.962;9.182;2022-11-14T00:26:46;5.40;99.90
19680;DHT22;9989;48.962;9.182;2022-11-14T00:29:13;5.40;99.90
19680;DHT22;9989;48.962;9.182;2022-11-14T00:31:39;5.40;99.90
19680;DHT22;9989;48.962;9.182;2022-11-14T00:34:05;5.40;99.90
19680;DHT22;9989;48.962;9.182;2022-11-14T00:36:31;5.40;99.90
19680;DHT22;9989;48.962;9.182;2022-11-14T00:38:56;5.40;99.90
19680;DHT22;9989;48.962;9.182;2022-11-14T00:41:22;5.30;99.90
19680;DHT22;9989;48.962;9.182;2022-11-14T00:43:48;5.30;99.90
19680;DHT22;9989;48.962;9.182;2022-11-14T00:46:13;5.30;99.90
19680;DHT22;9989;48.962;9.182;2022-11-14T00:48:39;5.20;99.90
19680;DHT22;9989;48.962;9.182;2022-11-14T00:51:05;5.20;99.90
19680;DHT22;9989;48.962;9.182;2022-11-14T00:53:30;5.20;99.90
19680;DHT22;9989;48.962;9.182;2022-11-14T00:55:56;5.10;99.90
19680;DHT22;9989;48.962;9.182;2022-11-14T00:58:21;5.10;99.90
19680;DHT22;9989;48.962;9.182;2022-11-14T01:00:47;5.10;99.90
19680;DHT22;9989;48.962;9.182;2022-11-14T01:03:13;5.10;99.90
19680;DHT22;9989;48.962;9.182;2022-11-14T01:05:47;5.00;99.90
19680;DHT22;9989;48.962;9.182;2022-11-14T01:08:14;5.00;99.90
19680;DHT22;9989;48.962;9.182;2022-11-14T01:10:42;5.00;99.90
19680;DHT22;9989;48.962;9.182;2022-11-14T01:13:08;5.00;99.90
19680;DHT22;9989;48.962;9.182;2022-11-14T01:15:42;5.00;99.90
19680;DHT22;9989;48.962;9.182;2022-11-14T01:18:13;4.90;99.90
19680;DHT22;9989;48.962;9.182;2022-11-14T01:20:44;4.90;99.90
19680;DHT22;9989;48.962;9.182;2022-11-14T01:23:11;4.90;99.90
19680;DHT22;9989;48.962;9.182;2022-11-14T01:25:38;4.90;99.90
19680;DHT22;9989;48.962;9.182;2022-11-14T01:28:09;4.90;99.90
19680;DHT22;9989;48.962;9.182;2022-11-14T01:30:36;4.80;99.90
19680;DHT22;9989;48.962;9.182;2022-11-14T01:33:02;4.80;99.90
19680;DHT22;9989;48.962;9.182;2022-11-14T01:35:27;4.80;99.90
19680;DHT22;9989;48.962;9.182;2022-11-14T01:37:53;4.80;99.90
19680;DHT22;9989;48.962;9.182;2022-11-14T01:40:19;4.80;99.90
19680;DHT22;9989;48.962;9.182;2022-11-14T01:45:52;4.80;99.90
19680;DHT22;9989;48.962;9.182;2022-11-14T01:48:28;4.90;99.90
19680;DHT22;9989;48.962;9.182;2022-11-14T01:51:02;4.90;99.90
19680;DHT22;9989;48.962;9.182;2022-11-14T01:53:29;4.80;99.90
19680;DHT22;9989;48.962;9.182;2022-11-14T01:55:58;4.80;99.90
19680;DHT22;9989;48.962;9.182;2022-11-14T01:58:26;4.90;99.90
19680;DHT22;9989;48.962;9.182;2022-11-14T02:00:53;4.90;99.90
19680;DHT22;9989;48.962;9.182;2022-11-14T02:03:19;4.80;99.90
19680;DHT22;9989;48.962;9.182;2022-11-14T02:05:46;4.80;99.90
19680;DHT22;9989;48.962;9.182;2022-11-14T02:08:13;4.80;99.90
19680;DHT22;9989;48.962;9.182;2022-11-14T02:10:39;4.80;99.90
19680;DHT22;9989;48.962;9.182;2022-11-14T02:13:05;4.80;99.90
19680;DHT22;9989;48.962;9.182;2022-11-14T02:15:31;4.80;99.90
19680;DHT22;9989;48.962;9.182;2022-11-14T02:17:57;4.80;99.90
19680;DHT22;9989;48.962;9.182;2022-11-14T02:20:26;4.80;99.90
19680;DHT22;9989;48.962;9.182;2022-11-14T02:22:57;4.90;99.90
19680;DHT22;9989;48.962;9.182;2022-11-14T02:25:23;4.80;99.90
19680;DHT22;9989;48.962;9.182;2022-11-14T02:27:48;4.80;99.90
19680;DHT22;9989;48.962;9.182;2022-11-14T02:30:18;4.90;99.90
19680;DHT22;9989;48.962;9.182;2022-11-14T02:32:44;4.90;99.90
19680;DHT22;9989;48.962;9.182;2022-11-14T02:35:10;4.90;99.90
19680;DHT22;9989;48.962;9.182;2022-11-14T02:37:36;4.90;99.90
19680;DHT22;9989;48.962;9.182;2022-11-14T02:40:01;4.90;99.90
19680;DHT22;9989;48.962;9.182;2022-11-14T02:42:27;4.80;99.90
19680;DHT22;9989;48.962;9.182;2022-11-14T02:44:53;4.80;99.90
19680;DHT22;9989;48.962;9.182;2022-11-14T02:47:18;4.80;99.90
19680;DHT22;9989;48.962;9.182;2022-11-14T02:49:44;4.90;99.90
19680;DHT22;9989;48.962;9.182;2022-11-14T02:52:09;4.80;99.90
19680;DHT22;9989;48.962;9.182;2022-11-14T02:54:35;4.80;99.90
19680;DHT22;9989;48.962;9.182;2022-11-14T02:57:00;4.80;99.90
19680;DHT22;9989;48.962;9.182;2022-11-14T02:59:26;4.70;99.90
19680;DHT22;9989;48.962;9.182;2022-11-14T03:01:51;4.70;99.90
19680;DHT22;9989;48.962;9.182;2022-11-14T03:04:17;4.60;99.90
19680;DHT22;9989;48.962;9.182;2022-11-14T03:06:43;4.60;99.90
19680;DHT22;9989;48.962;9.182;2022-11-14T03:09:08;4.60;99.90
19680;DHT22;9989;48.962;9.182;2022-11-14T03:11:34;4.50;99.90
19680;DHT22;9989;48.962;9.182;2022-11-14T03:13:59;4.50;99.90
19680;DHT22;9989;48.962;9.182;2022-11-14T03:16:28;4.50;99.90
19680;DHT22;9989;48.962;9.182;2022-11-14T03:18:53;4.50;99.90
19680;DHT22;9989;48.962;9.182;2022-11-14T03:21:21;4.50;99.90
19680;DHT22;9989;48.962;9.182;2022-11-14T03:23:47;4.50;99.90
19680;DHT22;9989;48.962;9.182;2022-11-14T03:26:13;4.60;99.90
19680;DHT22;9989;48.962;9.182;2022-11-14T03:28:40;4.60;99.90
19680;DHT22;9989;48.962;9.182;2022-11-14T03:31:07;4.50;99.90
19680;DHT22;9989;48.962;9.182;2022-11-14T03:33:33;4.50;99.90
19680;DHT22;9989;48.962;9.182;2022-11-14T03:35:59;4.50;99.90
19680;DHT22;9989;48.962;9.182;2022-11-14T03:38:25;4.50;99.90
19680;DHT22;9989;48.962;9.182;2022-11-14T03:40:51;4.50;99.90
19680;DHT22;9989;48.962;9.182;2022-11-14T03:43:17;4.50;99.90
19680;DHT22;9989;48.962;9.182;2022-11-14T03:45:43;4.60;99.90
19680;DHT22;9989;48.962;9.182;2022-11-14T03:48:09;4.60;99.90
19680;DHT22;9989;48.962;9.182;2022-11-14T03:50:35;4.60;99.90
19680;DHT22;9989;48.962;9.182;2022-11-14T03:53:00;4.60;99.90
19680;DHT22;9989;48.962;9.182;2022-11-14T03:55:26;4.50;99.90
19680;DHT22;9989;48.962;9.182;2022-11-14T03:57:52;4.50;99.90
19680;DHT22;9989;48.962;9.182;2022-11-14T04:00:18;4.50;99.90
19680;DHT22;9989;48.962;9.182;2022-11-14T04:02:44;4.50;99.90
19680;DHT22;9989;48.962;9.182;2022-11-14T04:05:09;4.50;99.90
19680;DHT22;9989;48.962;9.182;2022-11-14T04:07:35;4.50;99.90
19680;DHT22;9989;48.962;9.182;2022-11-14T04:10:01;4.50;99.90
19680;DHT22;9989;48.962;9.182;2022-11-14T04:12:26;4.50;99.90
19680;DHT22;9989;48.962;9.182;2022-11-14T04:14:52;4.60;99.90
19680;DHT22;9989;48.962;9.182;2022-11-14T04:17:18;4.50;99.90
19680;DHT22;9989;48.962;9.182;2022-11-14T04:19:43;4.50;99.90
19680;DHT22;9989;48.962;9.182;2022-11-14T04:22:09;4.40;99.90
19680;DHT22;9989;48.962;9.182;2022-11-14T04:24:34;4.40;99.90
19680;DHT22;9989;48.962;9.182;2022-11-14T04:27:00;4.40;99.90
19680;DHT22;9989;48.962;9.182;2022-11-14T04:29:27;4.40;99.90
19680;DHT22;9989;48.962;9.182;2022-11-14T04:31:52;4.40;99.90
19680;DHT22;9989;48.962;9.182;2022-11-14T04:34:18;4.40;99.90
19680;DHT22;9989;48.962;9.182;2022-11-14T04:36:43;4.40;99.90
19680;DHT22;9989;48.962;9.182;2022-11-14T04:39:09;4.50;99.90
19680;DHT22;9989;48.962;9.182;2022-11-14T04:41:34;4.50;99.90
19680;DHT22;9989;48.962;9.182;2022-11-14T04:44:00;4.50;99.90
19680;DHT22;9989;48.962;9.182;2022-11-14T04:46:26;4.40;99.90
19680;DHT22;9989;48.962;9.182;2022-11-14T04:48:52;4.50;99.90
19680;DHT22;9989;48.962;9.182;2022-11-14T04:51:18;4.50;99.90
19680;DHT22;9989;48.962;9.182;2022-11-14T04:53:43;4.50;99.90
19680;DHT22;9989;48.962;9.182;2022-11-14T04:56:09;4.60;99.90
19680;DHT22;9989;48.962;9.182;2022-11-14T04:58:34;4.60;99.90
19680;DHT22;9989;48.962;9.182;2022-11-14T05:01:07;4.60;99.90
19680;DHT22;9989;48.962;9.182;2022-11-14T05:03:32;4.60;99.90
19680;DHT22;9989;48.962;9.182;2022-11-14T05:06:01;4.60;99.90
19680;DHT22;9989;48.962;9.182;2022-11-14T05:08:27;4.60;99.90
19680;DHT22;9989;48.962;9.182;2022-11-14T05:10:53;4.70;99.90
19680;DHT22;9989;48.962;9.182;2022-11-14T05:13:18;4.70;99.90
19680;DHT22;9989;48.962;9.182;2022-11-14T05:15:44;4.70;99.90
19680;DHT22;9989;48.962;9.182;2022-11-14T05:18:10;4.70;99.90
19680;DHT22;9989;48.962;9.182;2022-11-14T05:20:35;4.70;99.90
19680;DHT22;9989;48.962;9.182;2022-11-14T05:23:02;4.70;99.90
19680;DHT22;9989;48.962;9.182;2022-11-14T05:25:27;4.70;99.90
19680;DHT22;9989;48.962;9.182;2022-11-14T05:27:53;4.70;99.90
19680;DHT22;9989;48.962;9.182;2022-11-14T05:30:18;4.70;99.90
19680;DHT22;9989;48.962;9.182;2022-11-14T05:32:44;4.70;99.90
19680;DHT22;9989;48.962;9.182;2022-11-14T05:35:10;4.70;99.90
19680;DHT22;9989;48.962;9.182;2022-11-14T05:37:35;4.70;99.90
19680;DHT22;9989;48.962;9.182;2022-11-14T05:40:02;4.70;99.90
19680;DHT22;9989;48.962;9.182;2022-11-14T05:42:28;4.70;99.90
19680;DHT22;9989;48.962;9.182;2022-11-14T05:44:53;4.70;99.90
19680;DHT22;9989;48.962;9.182;2022-11-14T05:47:19;4.70;99.90
19680;DHT22;9989;48.962;9.182;2022-11-14T05:49:44;4.70;99.90
19680;DHT22;9989;48.962;9.182;2022-11-14T05:52:11;4.60;99.90
19680;DHT22;9989;48.962;9.182;2022-11-14T05:54:36;4.70;99.90
19680;DHT22;9989;48.962;9.182;2022-11-14T05:57:03;4.70;99.90
19680;DHT22;9989;48.962;9.182;2022-11-14T05:59:28;4.70;99.90
19680;DHT22;9989;48.962;9.182;2022-11-14T06:01:54;4.80;99.90
19680;DHT22;9989;48.962;9.182;2022-11-14T06:04:20;4.80;99.90
19680;DHT22;9989;48.962;9.182;2022-11-14T06:06:45;4.80;99.90
19680;DHT22;9989;48.962;9.182;2022-11-14T06:09:11;4.80;99.90
19680;DHT22;9989;48.962;9.182;2022-11-14T06:11:37;4.90;99.90
19680;DHT22;9989;48.962;9.182;2022-11-14T06:14:03;4.90;99.90
19680;DHT22;9989;48.962;9.182;2022-11-14T06:16:28;4.90;99.90
19680;DHT22;9989;48.962;9.182;2022-11-14T06:18:55;4.90;99.90
19680;DHT22;9989;48.962;9.182;2022-11-14T06:21:23;4.90;99.90
19680;DHT22;9989;48.962;9.182;2022-11-14T06:23:49;4.90;99.90
19680;DHT22;9989;48.962;9.182;2022-11-14T06:26:28;4.90;99.90
19680;DHT22;9989;48.962;9.182;2022-11-14T06:28:55;4.90;99.90
19680;DHT22;9989;48.962;9.182;2022-11-14T06:31:21;4.90;99.90
19680;DHT22;9989;48.962;9.182;2022-11-14T06:33:47;4.90;99.90
19680;DHT22;9989;48.962;9.182;2022-11-14T06:36:13;4.90;99.90
19680;DHT22;9989;48.962;9.182;2022-11-14T06:38:40;5.00;99.90
19680;DHT22;9989;48.962;9.182;2022-11-14T06:41:11;5.00;99.90
19680;DHT22;9989;48.962;9.182;2022-11-14T06:43:41;5.00;99.90
19680;DHT22;9989;48.962;9.182;2022-11-14T06:46:08;5.00;99.90
19680;DHT22;9989;48.962;9.182;2022-11-14T06:48:35;5.10;99.90
19680;DHT22;9989;48.962;9.182;2022-11-14T06:51:01;5.20;99.90
19680;DHT22;9989;48.962;9.182;2022-11-14T06:53:29;5.20;99.90
19680;DHT22;9989;48.962;9.182;2022-11-14T06:56:05;5.30;99.90
19680;DHT22;9989;48.962;9.182;2022-11-14T06:58:33;5.40;99.90
19680;DHT22;9989;48.962;9.182;2022-11-14T07:03:33;5.80;99.90
19680;DHT22;9989;48.962;9.182;2022-11-14T07:05:59;5.90;99.90
19680;DHT22;9989;48.962;9.182;2022-11-14T07:08:25;6.10;99.90
19680;DHT22;9989;48.962;9.182;2022-11-14T07:10:51;6.40;99.90
19680;DHT22;9989;48.962;9.182;2022-11-14T07:13:17;6.60;99.90
19680;DHT22;9989;48.962;9.182;2022-11-14T07:15:50;6.80;99.90
19680;DHT22;9989;48.962;9.182;2022-11-14T07:18:16;6.90;99.90
19680;DHT22;9989;48.962;9.182;2022-11-14T07:20:41;6.90;99.90
19680;DHT22;9989;48.962;9.182;2022-11-14T07:23:07;6.90;99.90
19680;DHT22;9989;48.962;9.182;2022-11-14T07:25:33;6.90;99.90
19680;DHT22;9989;48.962;9.182;2022-11-14T07:27:59;6.80;99.90
19680;DHT22;9989;48.962;9.182;2022-11-14T07:30:24;6.70;99.90
19680;DHT22;9989;48.962;9.182;2022-11-14T07:32:54;6.60;99.90
19680;DHT22;9989;48.962;9.182;2022-11-14T07:35:20;6.60;99.90
19680;DHT22;9989;48.962;9.182;2022-11-14T07:37:46;6.50;99.90
19680;DHT22;9989;48.962;9.182;2022-11-14T07:40:11;6.50;99.90
19680;DHT22;9989;48.962;9.182;2022-11-14T07:42:37;6.50;99.90
19680;DHT22;9989;48.962;9.182;2022-11-14T07:45:02;6.50;99.90
19680;DHT22;9989;48.962;9.182;2022-11-14T07:47:28;6.60;99.90
19680;DHT22;9989;48.962;9.182;2022-11-14T07:49:54;6.60;99.90
19680;DHT22;9989;48.962;9.182;2022-11-14T07:52:19;6.70;99.90
19680;DHT22;9989;48.962;9.182;2022-11-14T07:54:45;6.70;99.90
19680;DHT22;9989;48.962;9.182;2022-11-14T07:57:10;6.70;99.90
19680;DHT22;9989;48.962;9.182;2022-11-14T07:59:36;6.70;99.90
19680;DHT22;9989;48.962;9.182;2022-11-14T08:02:01;6.80;99.90
19680;DHT22;9989;48.962;9.182;2022-11-14T08:04:27;7.10;99.90
19680;DHT22;9989;48.962;9.182;2022-11-14T08:06:52;7.40;99.90
19680;DHT22;9989;48.962;9.182;2022-11-14T08:09:18;7.70;99.90
19680;DHT22;9989;48.962;9.182;2022-11-14T08:11:44;7.80;99.90
19680;DHT22;9989;48.962;9.182;2022-11-14T08:14:16;7.80;99.90
19680;DHT22;9989;48.962;9.182;2022-11-14T08:16:42;7.90;99.90
19680;DHT22;9989;48.962;9.182;2022-11-14T08:19:07;7.90;99.90
19680;DHT22;9989;48.962;9.182;2022-11-14T08:21:33;7.90;99.90
19680;DHT22;9989;48.962;9.182;2022-11-14T08:23:58;7.90;99.90
19680;DHT22;9989;48.962;9.182;2022-11-14T08:26:24;7.80;99.90
19680;DHT22;9989;48.962;9.182;2022-11-14T08:28:53;7.70;99.90
19680;DHT22;9989;48.962;9.182;2022-11-14T08:31:19;7.70;99.90
19680;DHT22;9989;48.962;9.182;2022-11-14T08:33:45;7.60;99.90
19680;DHT22;9989;48.962;9.182;2022-11-14T08:36:11;7.50;99.90
19680;DHT22;9989;48.962;9.182;2022-11-14T08:38:36;7.50;99.90
19680;DHT22;9989;48.962;9.182;2022-11-14T08:41:03;7.40;99.90
19680;DHT22;9989;48.962;9.182;2022-11-14T08:43:30;7.30;99.90
19680;DHT22;9989;48.962;9.182;2022-11-14T08:46:00;7.30;99.90
19680;DHT22;9989;48.962;9.182;2022-11-14T08:48:26;7.20;99.90
19680;DHT22;9989;48.962;9.182;2022-11-14T08:50:52;7.20;99.90
19680;DHT22;9989;48.962;9.182;2022-11-14T08:53:17;7.20;99.90
19680;DHT22;9989;48.962;9.182;2022-11-14T08:55:44;7.10;99.90
19680;DHT22;9989;48.962;9.182;2022-11-14T08:58:09;7.00;99.90
19680;DHT22;9989;48.962;9.182;2022-11-14T09:00:35;7.00;99.90
19680;DHT22;9989;48.962;9.182;2022-11-14T09:03:07;7.00;99.90
19680;DHT22;9989;48.962;9.182;2022-11-14T09:05:33;6.90;99.90
19680;DHT22;9989;48.962;9.182;2022-11-14T09:07:59;6.80;99.90
19680;DHT22;9989;48.962;9.182;2022-11-14T09:10:24;6.80;99.90
19680;DHT22;9989;48.962;9.182;2022-11-14T09:13:00;6.70;99.90
19680;DHT22;9989;48.962;9.182;2022-11-14T09:15:27;6.70;99.90
19680;DHT22;9989;48.962;9.182;2022-11-14T09:17:54;6.70;99.90
19680;DHT22;9989;48.962;9.182;2022-11-14T09:20:20;6.70;99.90
19680;DHT22;9989;48.962;9.182;2022-11-14T09:22:46;6.70;99.90
19680;DHT22;9989;48.962;9.182;2022-11-14T09:25:12;6.80;99.90
19680;DHT22;9989;48.962;9.182;2022-11-14T09:27:37;6.80;99.90
19680;DHT22;9989;48.962;9.182;2022-11-14T09:30:04;6.90;99.90
19680;DHT22;9989;48.962;9.182;2022-11-14T09:32:29;7.00;99.90
19680;DHT22;9989;48.962;9.182;2022-11-14T09:34:55;7.00;99.90
19680;DHT22;9989;48.962;9.182;2022-11-14T09:37:21;7.10;99.90
19680;DHT22;9989;48.962;9.182;2022-11-14T09:39:46;7.10;99.90
19680;DHT22;9989;48.962;9.182;2022-11-14T09:42:51;7.20;99.90
19680;DHT22;9989;48.962;9.182;2022-11-14T09:45:19;7.20;99.90
19680;DHT22;9989;48.962;9.182;2022-11-14T09:47:52;7.30;99.90
19680;DHT22;9989;48.962;9.182;2022-11-14T09:50:24;7.40;99.90
19680;DHT22;9989;48.962;9.182;2022-11-14T09:52:59;7.40;99.90
19680;DHT22;9989;48.962;9.182;2022-11-14T09:55:32;7.50;99.90
19680;DHT22;9989;48.962;9.182;2022-11-14T09:58:00;7.60;99.90
19680;DHT22;9989;48.962;9.182;2022-11-14T10:00:33;7.60;99.90
19680;DHT22;9989;48.962;9.182;2022-11-14T10:06:01;7.80;99.90
19680;DHT22;9989;48.962;9.182;2022-11-14T10:08:53;7.80;99.90
19680;DHT22;9989;48.962;9.182;2022-11-14T10:11:38;7.90;99.90
19680;DHT22;9989;48.962;9.182;2022-11-14T10:17:23;8.20;99.90
19680;DHT22;9989;48.962;9.182;2022-11-14T10:20:08;8.30;99.90
19680;DHT22;9989;48.962;9.182;2022-11-14T10:25:14;8.60;99.90
19680;DHT22;9989;48.962;9.182;2022-11-14T10:28:03;8.80;99.90
19680;DHT22;9989;48.962;9.182;2022-11-14T10:36:23;9.20;99.90
19680;DHT22;9989;48.962;9.182;2022-11-14T10:41:23;9.60;99.90
19680;DHT22;9989;48.962;9.182;2022-11-14T10:43:50;9.80;99.90
19680;DHT22;9989;48.962;9.182;2022-11-14T10:46:22;10.10;99.90
19680;DHT22;9989;48.962;9.182;2022-11-14T10:48:51;10.30;99.90
19680;DHT22;9989;48.962;9.182;2022-11-14T10:51:19;10.70;99.90
19680;DHT22;9989;48.962;9.182;2022-11-14T10:56:20;11.70;99.90
19680;DHT22;9989;48.962;9.182;2022-11-14T10:58:45;11.80;99.90
19680;DHT22;9989;48.962;9.182;2022-11-14T11:01:37;11.80;99.90
19680;DHT22;9989;48.962;9.182;2022-11-14T11:06:38;11.50;99.90
19680;DHT22;9989;48.962;9.182;2022-11-14T11:09:34;11.50;99.90
19680;DHT22;9989;48.962;9.182;2022-11-14T11:12:39;11.50;99.90
19680;DHT22;9989;48.962;9.182;2022-11-14T11:18:02;11.90;99.90
19680;DHT22;9989;48.962;9.182;2022-11-14T11:20:30;12.40;99.90
19680;DHT22;9989;48.962;9.182;2022-11-14T11:25:35;13.10;99.90
19680;DHT22;9989;48.962;9.182;2022-11-14T11:30:36;13.50;99.90
19680;DHT22;9989;48.962;9.182;2022-11-14T11:33:33;14.00;99.90
19680;DHT22;9989;48.962;9.182;2022-11-14T11:36:05;15.90;99.90
19680;DHT22;9989;48.962;9.182;2022-11-14T11:38:32;18.50;99.90
19680;DHT22;9989;48.962;9.182;2022-11-14T11:41:24;20.50;99.90
19680;DHT22;9989;48.962;9.182;2022-11-14T11:44:11;20.90;99.90
19680;DHT22;9989;48.962;9.182;2022-11-14T11:49:22;19.30;99.90
19680;DHT22;9989;48.962;9.182;2022-11-14T11:51:52;18.20;99.90
19680;DHT22;9989;48.962;9.182;2022-11-14T11:54:21;17.40;99.90
19680;DHT22;9989;48.962;9.182;2022-11-14T11:56:53;16.50;99.90
19680;DHT22;9989;48.962;9.182;2022-11-14T11:59:42;15.80;99.90
19680;DHT22;9989;48.962;9.182;2022-11-14T12:02:24;15.20;99.90
19680;DHT22;9989;48.962;9.182;2022-11-14T12:04:50;14.70;99.90
19680;DHT22;9989;48.962;9.182;2022-11-14T12:07:23;14.30;99.90
19680;DHT22;9989;48.962;9.182;2022-11-14T12:09:49;13.90;99.90
19680;DHT22;9989;48.962;9.182;2022-11-14T12:15:26;13.50;99.90
19680;DHT22;9989;48.962;9.182;2022-11-14T12:23:30;13.00;99.90
19680;DHT22;9989;48.962;9.182;2022-11-14T12:31:02;12.70;99.90
19680;DHT22;9989;48.962;9.182;2022-11-14T12:33:48;12.70;99.90
19680;DHT22;9989;48.962;9.182;2022-11-14T12:36:16;12.60;99.90
19680;DHT22;9989;48.962;9.182;2022-11-14T12:38:51;12.60;99.90
19680;DHT22;9989;48.962;9.182;2022-11-14T12:41:29;12.60;99.90
19680;DHT22;9989;48.962;9.182;2022-11-14T12:44:15;12.60;99.90
19680;DHT22;9989;48.962;9.182;2022-11-14T13:00:32;17.00;99.90
19680;DHT22;9989;48.962;9.182;2022-11-14T13:06:08;19.70;99.90
19680;DHT22;9989;48.962;9.182;2022-11-14T13:14:18;21.00;95.80
19680;DHT22;9989;48.962;9.182;2022-11-14T13:23:03;21.50;95.00
19680;DHT22;9989;48.962;9.182;2022-11-14T13:25:29;21.40;93.20
19680;DHT22;9989;48.962;9.182;2022-11-14T13:27:55;21.10;92.90
19680;DHT22;9989;48.962;9.182;2022-11-14T13:33:44;19.70;95.30
19680;DHT22;9989;48.962;9.182;2022-11-14T13:36:47;19.40;96.00
19680;DHT22;9989;48.962;9.182;2022-11-14T13:39:43;18.90;96.40
19680;DHT22;9989;48.962;9.182;2022-11-14T13:50:10;17.50;99.90
19680;DHT22;9989;48.962;9.182;2022-11-14T13:52:43;17.50;99.90
19680;DHT22;9989;48.962;9.182;2022-11-14T13:55:18;17.80;99.90
19680;DHT22;9989;48.962;9.182;2022-11-14T14:09:12;16.90;99.90
19680;DHT22;9989;48.962;9.182;2022-11-14T14:17:08;16.30;99.90
19680;DHT22;9989;48.962;9.182;2022-11-14T14:32:24;21.10;94.60
19680;DHT22;9989;48.962;9.182;2022-11-14T14:34:50;21.40;93.40
19680;DHT22;9989;48.962;9.182;2022-11-14T14:37:21;21.80;91.90
19680;DHT22;9989;48.962;9.182;2022-11-14T14:40:04;22.40;90.70
19680;DHT22;9989;48.962;9.182;2022-11-14T14:42:44;22.60;88.10
19680;DHT22;9989;48.962;9.182;2022-11-14T14:45:18;22.30;88.20
19680;DHT22;9989;48.962;9.182;2022-11-14T14:50:33;22.50;86.80
19680;DHT22;9989;48.962;9.182;2022-11-14T14:53:01;22.30;85.90
19680;DHT22;9989;48.962;9.182;2022-11-14T14:55:29;22.00;85.30
19680;DHT22;9989;48.962;9.182;2022-11-14T14:58:12;21.40;86.80
19680;DHT22;9989;48.962;9.182;2022-11-14T15:00:39;20.70;89.20
19680;DHT22;9989;48.962;9.182;2022-11-14T15:03:14;20.40;90.80
19680;DHT22;9989;48.962;9.182;2022-11-14T15:05:40;20.10;90.90
19680;DHT22;9989;48.962;9.182;2022-11-14T15:08:11;19.90;91.10
19680;DHT22;9989;48.962;9.182;2022-11-14T15:10:38;19.50;91.40
19680;DHT22;9989;48.962;9.182;2022-11-14T15:13:04;19.00;92.40
19680;DHT22;9989;48.962;9.182;2022-11-14T15:15:30;18.40;93.40
19680;DHT22;9989;48.962;9.182;2022-11-14T15:18:01;17.90;94.20
19680;DHT22;9989;48.962;9.182;2022-11-14T15:20:29;17.50;95.10
19680;DHT22;9989;48.962;9.182;2022-11-14T15:23:18;17.20;96.40
19680;DHT22;9989;48.962;9.182;2022-11-14T15:25:44;16.80;97.30
19680;DHT22;9989;48.962;9.182;2022-11-14T15:28:18;16.50;97.90
19680;DHT22;9989;48.962;9.182;2022-11-14T15:30:57;16.30;98.80
19680;DHT22;9989;48.962;9.182;2022-11-14T15:33:29;16.00;99.80
19680;DHT22;9989;48.962;9.182;2022-11-14T15:36:11;15.70;99.90
19680;DHT22;9989;48.962;9.182;2022-11-14T15:38:37;15.40;99.90
19680;DHT22;9989;48.962;9.182;2022-11-14T15:41:16;15.20;99.90
19680;DHT22;9989;48.962;9.182;2022-11-14T15:46:37;14.90;99.90
19680;DHT22;9989;48.962;9.182;2022-11-14T15:51:48;14.60;99.90
19680;DHT22;9989;48.962;9.182;2022-11-14T15:54:32;14.50;99.90
19680;DHT22;9989;48.962;9.182;2022-11-14T15:57:11;14.40;99.90
19680;DHT22;9989;48.962;9.182;2022-11-14T15:59:37;14.20;99.90
19680;DHT22;9989;48.962;9.182;2022-11-14T16:02:14;14.10;99.90
19680;DHT22;9989;48.962;9.182;2022-11-14T16:04:40;14.00;99.90
19680;DHT22;9989;48.962;9.182;2022-11-14T16:07:11;13.90;99.90
19680;DHT22;9989;48.962;9.182;2022-11-14T16:09:36;13.80;99.90
19680;DHT22;9989;48.962;9.182;2022-11-14T16:12:02;13.60;99.90
19680;DHT22;9989;48.962;9.182;2022-11-14T16:14:28;13.50;99.90
19680;DHT22;9989;48.962;9.182;2022-11-14T16:16:54;13.50;99.90
19680;DHT22;9989;48.962;9.182;2022-11-14T16:19:19;13.50;99.90
19680;DHT22;9989;48.962;9.182;2022-11-14T16:21:46;13.40;99.90
19680;DHT22;9989;48.962;9.182;2022-11-14T16:24:20;13.30;99.90
19680;DHT22;9989;48.962;9.182;2022-11-14T16:26:47;13.30;99.90
19680;DHT22;9989;48.962;9.182;2022-11-14T16:29:14;13.30;99.90
19680;DHT22;9989;48.962;9.182;2022-11-14T16:31:39;13.20;99.90
19680;DHT22;9989;48.962;9.182;2022-11-14T16:34:05;13.20;99.90
19680;DHT22;9989;48.962;9.182;2022-11-14T16:36:31;13.10;99.90
19680;DHT22;9989;48.962;9.182;2022-11-14T16:39:02;13.10;99.90
19680;DHT22;9989;48.962;9.182;2022-11-14T16:41:27;13.00;99.90
19680;DHT22;9989;48.962;9.182;2022-11-14T16:43:56;13.00;99.90
19680;DHT22;9989;48.962;9.182;2022-11-14T16:46:22;13.00;99.90
19680;DHT22;9989;48.962;9.182;2022-11-14T16:48:48;12.90;99.90
19680;DHT22;9989;48.962;9.182;2022-11-14T16:51:14;13.00;99.90
19680;DHT22;9989;48.962;9.182;2022-11-14T16:53:40;13.00;99.90
19680;DHT22;9989;48.962;9.182;2022-11-14T16:56:05;12.90;99.90
19680;DHT22;9989;48.962;9.182;2022-11-14T16:58:34;12.90;99.90
19680;DHT22;9989;48.962;9.182;2022-11-14T17:01:02;12.80;99.90
19680;DHT22;9989;48.962;9.182;2022-11-14T17:03:30;12.80;99.90
19680;DHT22;9989;48.962;9.182;2022-11-14T17:05:56;12.80;99.90
19680;DHT22;9989;48.962;9.182;2022-11-14T17:08:21;12.80;99.90
19680;DHT22;9989;48.962;9.182;2022-11-14T17:10:47;12.70;99.90
19680;DHT22;9989;48.962;9.182;2022-11-14T17:13:13;12.70;99.90
19680;DHT22;9989;48.962;9.182;2022-11-14T17:15:39;12.60;99.90
19680;DHT22;9989;48.962;9.182;2022-11-14T17:18:05;12.60;99.90
19680;DHT22;9989;48.962;9.182;2022-11-14T17:20:31;12.60;99.90
19680;DHT22;9989;48.962;9.182;2022-11-14T17:22:56;12.50;99.90
19680;DHT22;9989;48.962;9.182;2022-11-14T17:25:23;12.50;99.90
19680;DHT22;9989;48.962;9.182;2022-11-14T17:27:48;12.40;99.90
19680;DHT22;9989;48.962;9.182;2022-11-14T17:30:15;12.40;99.90
19680;DHT22;9989;48.962;9.182;2022-11-14T17:32:41;12.30;99.90
19680;DHT22;9989;48.962;9.182;2022-11-14T17:35:07;12.20;99.90
19680;DHT22;9989;48.962;9.182;2022-11-14T17:37:33;12.20;99.90
19680;DHT22;9989;48.962;9.182;2022-11-14T17:39:58;12.10;99.90
19680;DHT22;9989;48.962;9.182;2022-11-14T17:42:24;12.10;99.90
19680;DHT22;9989;48.962;9.182;2022-11-14T17:44:50;12.10;99.90
19680;DHT22;9989;48.962;9.182;2022-11-14T17:47:16;12.10;99.90
19680;DHT22;9989;48.962;9.182;2022-11-14T17:49:42;12.10;99.90
19680;DHT22;9989;48.962;9.182;2022-11-14T17:52:07;12.10;99.90
19680;DHT22;9989;48.962;9.182;2022-11-14T17:54:33;12.10;99.90
19680;DHT22;9989;48.962;9.182;2022-11-14T17:57:05;12.00;99.90
19680;DHT22;9989;48.962;9.182;2022-11-14T17:59:31;12.00;99.90
19680;DHT22;9989;48.962;9.182;2022-11-14T18:01:57;12.00;99.90
19680;DHT22;9989;48.962;9.182;2022-11-14T18:04:26;11.90;99.90
19680;DHT22;9989;48.962;9.182;2022-11-14T18:06:52;11.90;99.90
19680;DHT22;9989;48.962;9.182;2022-11-14T18:09:18;11.90;99.90
19680;DHT22;9989;48.962;9.182;2022-11-14T18:11:43;11.90;99.90
19680;DHT22;9989;48.962;9.182;2022-11-14T18:14:10;11.90;99.90
19680;DHT22;9989;48.962;9.182;2022-11-14T18:16:37;11.80;99.90